sensor_id;sensor_type;location;lat;lon;timestamp;P1;durP1;ratioP1;P2;durP2;ratioP2
69434;SDS011;56625;54.322;18.582;2022-10-16T00:01:43;34.50;;;18.30;;
69434;SDS011;56625;54.322;18.582;2022-10-16T00:04:12;37.00;;;17.30;;
69434;SDS011;56625;54.322;18.582;2022-10-16T00:06:41;36.40;;;17.00;;
69434;SDS011;56625;54.322;18.582;2022-10-16T00:09:08;35.20;;;16.80;;
69434;SDS011;56625;54.322;18.582;2022-10-16T00:11:38;32.00;;;15.70;;
69434;SDS011;56625;54.322;18.582;2022-10-16T00:14:11;30.00;;;13.20;;
69434;SDS011;56625;54.322;18.582;2022-10-16T00:16:44;30.90;;;14.30;;
69434;SDS011;56625;54.322;18.582;2022-10-16T00:19:12;26.10;;;11.80;;
69434;SDS011;56625;54.322;18.582;2022-10-16T00:21:40;30.80;;;12.60;;
69434;SDS011;56625;54.322;18.582;2022-10-16T00:24:09;31.30;;;14.20;;
69434;SDS011;56625;54.322;18.582;2022-10-16T00:26:38;31.50;;;14.20;;
69434;SDS011;56625;54.322;18.582;2022-10-16T00:29:08;32.80;;;15.30;;
69434;SDS011;56625;54.322;18.582;2022-10-16T00:31:35;31.40;;;13.50;;
69434;SDS011;56625;54.322;18.582;2022-10-16T00:34:03;30.20;;;12.90;;
69434;SDS011;56625;54.322;18.582;2022-10-16T00:36:31;30.20;;;13.60;;
69434;SDS011;56625;54.322;18.582;2022-10-16T00:38:59;27.50;;;12.00;;
69434;SDS011;56625;54.322;18.582;2022-10-16T00:41:29;30.70;;;13.40;;
69434;SDS011;56625;54.322;18.582;2022-10-16T00:44:00;30.10;;;13.30;;
69434;SDS011;56625;54.322;18.582;2022-10-16T00:46:40;22.70;;;9.80;;
69434;SDS011;56625;54.322;18.582;2022-10-16T00:49:12;24.30;;;11.00;;
69434;SDS011;56625;54.322;18.582;2022-10-16T00:51:46;24.10;;;11.60;;
69434;SDS011;56625;54.322;18.582;2022-10-16T00:54:20;28.80;;;12.90;;
69434;SDS011;56625;54.322;18.582;2022-10-16T00:56:51;30.90;;;13.00;;
69434;SDS011;56625;54.322;18.582;2022-10-16T00:59:27;25.20;;;12.40;;
69434;SDS011;56625;54.322;18.582;2022-10-16T01:01:58;28.10;;;12.10;;
69434;SDS011;56625;54.322;18.582;2022-10-16T01:04:29;27.70;;;12.80;;
69434;SDS011;56625;54.322;18.582;2022-10-16T01:07:12;25.80;;;12.10;;
69434;SDS011;56625;54.322;18.582;2022-10-16T01:13:07;27.10;;;12.60;;
69434;SDS011;56625;54.322;18.582;2022-10-16T01:18:41;25.90;;;11.80;;
69434;SDS011;56625;54.322;18.582;2022-10-16T01:21:31;25.70;;;11.80;;
69434;SDS011;56625;54.322;18.582;2022-10-16T01:24:15;28.40;;;12.90;;
69434;SDS011;56625;54.322;18.582;2022-10-16T01:27:05;26.00;;;11.90;;
69434;SDS011;56625;54.322;18.582;2022-10-16T01:29:49;26.00;;;12.80;;
69434;SDS011;56625;54.322;18.582;2022-10-16T01:38:06;25.30;;;11.10;;
69434;SDS011;56625;54.322;18.582;2022-10-16T01:40:45;20.00;;;9.00;;
69434;SDS011;56625;54.322;18.582;2022-10-16T01:43:20;25.60;;;10.40;;
69434;SDS011;56625;54.322;18.582;2022-10-16T01:45:53;26.40;;;11.70;;
69434;SDS011;56625;54.322;18.582;2022-10-16T01:48:23;18.40;;;8.30;;
69434;SDS011;56625;54.322;18.582;2022-10-16T01:51:05;23.90;;;10.80;;
69434;SDS011;56625;54.322;18.582;2022-10-16T01:53:39;20.00;;;8.50;;
69434;SDS011;56625;54.322;18.582;2022-10-16T01:56:11;19.60;;;9.80;;
69434;SDS011;56625;54.322;18.582;2022-10-16T01:58:47;24.40;;;10.80;;
69434;SDS011;56625;54.322;18.582;2022-10-16T02:01:23;19.60;;;9.30;;
69434;SDS011;56625;54.322;18.582;2022-10-16T02:03:57;19.50;;;8.30;;
69434;SDS011;56625;54.322;18.582;2022-10-16T02:06:30;16.20;;;7.50;;
69434;SDS011;56625;54.322;18.582;2022-10-16T02:08:58;18.10;;;7.10;;
69434;SDS011;56625;54.322;18.582;2022-10-16T02:11:26;21.60;;;9.80;;
69434;SDS011;56625;54.322;18.582;2022-10-16T02:13:59;19.10;;;8.80;;
69434;SDS011;56625;54.322;18.582;2022-10-16T02:16:42;21.00;;;9.90;;
69434;SDS011;56625;54.322;18.582;2022-10-16T02:19:13;15.40;;;6.70;;
69434;SDS011;56625;54.322;18.582;2022-10-16T02:21:54;19.40;;;10.10;;
69434;SDS011;56625;54.322;18.582;2022-10-16T02:27:33;21.70;;;10.00;;
69434;SDS011;56625;54.322;18.582;2022-10-16T02:30:27;17.20;;;8.10;;
69434;SDS011;56625;54.322;18.582;2022-10-16T02:33:00;19.50;;;8.60;;
69434;SDS011;56625;54.322;18.582;2022-10-16T02:35:31;18.80;;;9.10;;
69434;SDS011;56625;54.322;18.582;2022-10-16T02:37:59;19.20;;;9.90;;
69434;SDS011;56625;54.322;18.582;2022-10-16T02:40:28;22.70;;;10.70;;
69434;SDS011;56625;54.322;18.582;2022-10-16T02:42:56;19.40;;;9.90;;
69434;SDS011;56625;54.322;18.582;2022-10-16T02:45:24;21.90;;;9.40;;
69434;SDS011;56625;54.322;18.582;2022-10-16T02:47:52;17.60;;;9.30;;
69434;SDS011;56625;54.322;18.582;2022-10-16T02:50:20;17.50;;;9.40;;
69434;SDS011;56625;54.322;18.582;2022-10-16T02:52:48;18.50;;;8.70;;
69434;SDS011;56625;54.322;18.582;2022-10-16T02:55:16;18.90;;;9.20;;
69434;SDS011;56625;54.322;18.582;2022-10-16T02:57:44;17.40;;;9.20;;
69434;SDS011;56625;54.322;18.582;2022-10-16T03:00:14;18.50;;;10.10;;
69434;SDS011;56625;54.322;18.582;2022-10-16T03:02:44;20.00;;;9.50;;
69434;SDS011;56625;54.322;18.582;2022-10-16T03:05:11;21.40;;;9.60;;
69434;SDS011;56625;54.322;18.582;2022-10-16T03:07:39;17.20;;;8.80;;
69434;SDS011;56625;54.322;18.582;2022-10-16T03:10:08;19.50;;;9.30;;
69434;SDS011;56625;54.322;18.582;2022-10-16T03:12:36;20.20;;;9.40;;
69434;SDS011;56625;54.322;18.582;2022-10-16T03:15:04;17.90;;;10.20;;
69434;SDS011;56625;54.322;18.582;2022-10-16T03:17:32;19.80;;;10.70;;
69434;SDS011;56625;54.322;18.582;2022-10-16T03:20:00;19.40;;;9.00;;
69434;SDS011;56625;54.322;18.582;2022-10-16T03:22:28;17.30;;;8.60;;
69434;SDS011;56625;54.322;18.582;2022-10-16T03:24:56;16.60;;;8.50;;
69434;SDS011;56625;54.322;18.582;2022-10-16T03:27:24;16.20;;;8.90;;
69434;SDS011;56625;54.322;18.582;2022-10-16T03:29:53;16.10;;;8.60;;
69434;SDS011;56625;54.322;18.582;2022-10-16T03:32:20;17.80;;;9.20;;
69434;SDS011;56625;54.322;18.582;2022-10-16T03:34:49;16.10;;;8.00;;
69434;SDS011;56625;54.322;18.582;2022-10-16T03:37:17;16.00;;;9.00;;
69434;SDS011;56625;54.322;18.582;2022-10-16T03:39:44;16.30;;;9.30;;
69434;SDS011;56625;54.322;18.582;2022-10-16T03:42:12;16.00;;;7.60;;
69434;SDS011;56625;54.322;18.582;2022-10-16T03:44:40;15.70;;;8.50;;
69434;SDS011;56625;54.322;18.582;2022-10-16T03:47:08;16.40;;;9.50;;
69434;SDS011;56625;54.322;18.582;2022-10-16T03:49:36;17.80;;;9.90;;
69434;SDS011;56625;54.322;18.582;2022-10-16T03:52:04;17.70;;;9.00;;
69434;SDS011;56625;54.322;18.582;2022-10-16T03:54:32;15.90;;;8.70;;
69434;SDS011;56625;54.322;18.582;2022-10-16T03:56:59;17.00;;;8.40;;
69434;SDS011;56625;54.322;18.582;2022-10-16T03:59:27;16.50;;;8.50;;
69434;SDS011;56625;54.322;18.582;2022-10-16T04:01:55;17.30;;;8.50;;
69434;SDS011;56625;54.322;18.582;2022-10-16T04:04:23;18.40;;;9.80;;
69434;SDS011;56625;54.322;18.582;2022-10-16T04:06:51;17.90;;;9.00;;
69434;SDS011;56625;54.322;18.582;2022-10-16T04:09:19;17.20;;;8.90;;
69434;SDS011;56625;54.322;18.582;2022-10-16T04:11:47;16.70;;;8.70;;
69434;SDS011;56625;54.322;18.582;2022-10-16T04:14:15;16.70;;;8.10;;
69434;SDS011;56625;54.322;18.582;2022-10-16T04:16:42;17.50;;;9.20;;
69434;SDS011;56625;54.322;18.582;2022-10-16T04:19:10;16.10;;;7.60;;
69434;SDS011;56625;54.322;18.582;2022-10-16T04:21:38;18.00;;;9.00;;
69434;SDS011;56625;54.322;18.582;2022-10-16T04:24:06;17.00;;;8.60;;
69434;SDS011;56625;54.322;18.582;2022-10-16T04:26:34;15.80;;;8.70;;
69434;SDS011;56625;54.322;18.582;2022-10-16T04:29:01;16.10;;;8.60;;
69434;SDS011;56625;54.322;18.582;2022-10-16T04:31:29;17.80;;;9.30;;
69434;SDS011;56625;54.322;18.582;2022-10-16T04:33:57;16.00;;;8.10;;
69434;SDS011;56625;54.322;18.582;2022-10-16T04:36:25;18.90;;;9.50;;
69434;SDS011;56625;54.322;18.582;2022-10-16T04:38:55;16.10;;;8.90;;
69434;SDS011;56625;54.322;18.582;2022-10-16T04:41:23;19.70;;;10.20;;
69434;SDS011;56625;54.322;18.582;2022-10-16T04:43:51;17.40;;;9.40;;
69434;SDS011;56625;54.322;18.582;2022-10-16T04:46:19;18.70;;;9.70;;
69434;SDS011;56625;54.322;18.582;2022-10-16T04:48:47;18.10;;;9.00;;
69434;SDS011;56625;54.322;18.582;2022-10-16T04:51:14;17.10;;;9.20;;
69434;SDS011;56625;54.322;18.582;2022-10-16T04:53:42;18.60;;;10.10;;
69434;SDS011;56625;54.322;18.582;2022-10-16T04:56:10;21.10;;;10.60;;
69434;SDS011;56625;54.322;18.582;2022-10-16T04:58:38;19.30;;;8.90;;
69434;SDS011;56625;54.322;18.582;2022-10-16T05:01:05;19.40;;;9.80;;
69434;SDS011;56625;54.322;18.582;2022-10-16T05:03:33;20.00;;;10.10;;
69434;SDS011;56625;54.322;18.582;2022-10-16T05:06:01;19.50;;;10.00;;
69434;SDS011;56625;54.322;18.582;2022-10-16T05:08:31;20.10;;;9.20;;
69434;SDS011;56625;54.322;18.582;2022-10-16T05:10:59;19.80;;;11.00;;
69434;SDS011;56625;54.322;18.582;2022-10-16T05:13:27;20.50;;;10.30;;
69434;SDS011;56625;54.322;18.582;2022-10-16T05:15:55;21.50;;;11.10;;
69434;SDS011;56625;54.322;18.582;2022-10-16T05:18:23;21.00;;;10.40;;
69434;SDS011;56625;54.322;18.582;2022-10-16T05:20:51;22.40;;;11.70;;
69434;SDS011;56625;54.322;18.582;2022-10-16T05:23:18;23.60;;;13.00;;
69434;SDS011;56625;54.322;18.582;2022-10-16T05:25:56;24.90;;;13.00;;
69434;SDS011;56625;54.322;18.582;2022-10-16T05:28:27;23.60;;;12.00;;
69434;SDS011;56625;54.322;18.582;2022-10-16T05:30:56;24.10;;;13.20;;
69434;SDS011;56625;54.322;18.582;2022-10-16T05:33:25;24.90;;;12.10;;
69434;SDS011;56625;54.322;18.582;2022-10-16T05:35:53;24.30;;;12.00;;
69434;SDS011;56625;54.322;18.582;2022-10-16T05:38:21;23.60;;;11.50;;
69434;SDS011;56625;54.322;18.582;2022-10-16T05:40:52;21.90;;;11.70;;
69434;SDS011;56625;54.322;18.582;2022-10-16T05:43:20;26.80;;;13.60;;
69434;SDS011;56625;54.322;18.582;2022-10-16T05:46:00;24.20;;;13.20;;
69434;SDS011;56625;54.322;18.582;2022-10-16T05:48:32;26.20;;;13.10;;
69434;SDS011;56625;54.322;18.582;2022-10-16T05:51:05;29.40;;;13.80;;
69434;SDS011;56625;54.322;18.582;2022-10-16T05:53:36;23.30;;;13.30;;
69434;SDS011;56625;54.322;18.582;2022-10-16T05:56:06;21.40;;;11.40;;
69434;SDS011;56625;54.322;18.582;2022-10-16T05:58:37;26.60;;;14.00;;
69434;SDS011;56625;54.322;18.582;2022-10-16T06:01:13;25.30;;;13.20;;
69434;SDS011;56625;54.322;18.582;2022-10-16T06:03:45;30.60;;;15.10;;
69434;SDS011;56625;54.322;18.582;2022-10-16T06:06:15;29.10;;;14.20;;
69434;SDS011;56625;54.322;18.582;2022-10-16T06:08:49;23.90;;;13.30;;
69434;SDS011;56625;54.322;18.582;2022-10-16T06:11:25;25.80;;;13.50;;
69434;SDS011;56625;54.322;18.582;2022-10-16T06:13:57;25.80;;;13.50;;
69434;SDS011;56625;54.322;18.582;2022-10-16T06:16:36;24.40;;;11.60;;
69434;SDS011;56625;54.322;18.582;2022-10-16T06:19:05;24.80;;;12.60;;
69434;SDS011;56625;54.322;18.582;2022-10-16T06:21:34;26.40;;;13.40;;
69434;SDS011;56625;54.322;18.582;2022-10-16T06:24:02;25.20;;;13.30;;
69434;SDS011;56625;54.322;18.582;2022-10-16T06:26:30;25.20;;;13.00;;
69434;SDS011;56625;54.322;18.582;2022-10-16T06:28:59;21.90;;;11.00;;
69434;SDS011;56625;54.322;18.582;2022-10-16T06:31:27;29.10;;;13.70;;
69434;SDS011;56625;54.322;18.582;2022-10-16T06:33:59;23.20;;;13.30;;
69434;SDS011;56625;54.322;18.582;2022-10-16T06:36:28;26.10;;;13.40;;
69434;SDS011;56625;54.322;18.582;2022-10-16T06:38:56;23.20;;;13.10;;
69434;SDS011;56625;54.322;18.582;2022-10-16T06:41:24;22.40;;;11.50;;
69434;SDS011;56625;54.322;18.582;2022-10-16T06:43:51;25.50;;;14.50;;
69434;SDS011;56625;54.322;18.582;2022-10-16T06:46:22;27.60;;;14.50;;
69434;SDS011;56625;54.322;18.582;2022-10-16T06:48:52;25.80;;;13.70;;
69434;SDS011;56625;54.322;18.582;2022-10-16T06:51:22;23.70;;;12.50;;
69434;SDS011;56625;54.322;18.582;2022-10-16T06:53:54;25.40;;;14.00;;
69434;SDS011;56625;54.322;18.582;2022-10-16T06:56:32;21.80;;;11.10;;
69434;SDS011;56625;54.322;18.582;2022-10-16T06:59:02;26.10;;;14.10;;
69434;SDS011;56625;54.322;18.582;2022-10-16T07:01:30;27.50;;;14.20;;
69434;SDS011;56625;54.322;18.582;2022-10-16T07:03:59;25.40;;;14.10;;
69434;SDS011;56625;54.322;18.582;2022-10-16T07:06:31;24.80;;;12.90;;
69434;SDS011;56625;54.322;18.582;2022-10-16T07:09:03;23.60;;;13.00;;
69434;SDS011;56625;54.322;18.582;2022-10-16T07:11:34;23.60;;;12.90;;
69434;SDS011;56625;54.322;18.582;2022-10-16T07:14:04;23.50;;;13.90;;
69434;SDS011;56625;54.322;18.582;2022-10-16T07:16:32;27.00;;;14.40;;
69434;SDS011;56625;54.322;18.582;2022-10-16T07:19:03;24.30;;;12.00;;
69434;SDS011;56625;54.322;18.582;2022-10-16T07:21:33;25.70;;;14.60;;
69434;SDS011;56625;54.322;18.582;2022-10-16T07:24:11;24.30;;;13.20;;
69434;SDS011;56625;54.322;18.582;2022-10-16T07:26:42;25.20;;;11.90;;
69434;SDS011;56625;54.322;18.582;2022-10-16T07:29:17;25.00;;;13.20;;
69434;SDS011;56625;54.322;18.582;2022-10-16T07:31:48;24.60;;;13.80;;
69434;SDS011;56625;54.322;18.582;2022-10-16T07:34:20;23.60;;;12.80;;
69434;SDS011;56625;54.322;18.582;2022-10-16T07:36:50;23.80;;;13.00;;
69434;SDS011;56625;54.322;18.582;2022-10-16T07:39:18;17.80;;;8.70;;
69434;SDS011;56625;54.322;18.582;2022-10-16T07:41:46;23.80;;;12.20;;
69434;SDS011;56625;54.322;18.582;2022-10-16T07:44:15;24.60;;;13.20;;
69434;SDS011;56625;54.322;18.582;2022-10-16T07:46:43;26.50;;;13.50;;
69434;SDS011;56625;54.322;18.582;2022-10-16T07:49:11;24.50;;;12.90;;
69434;SDS011;56625;54.322;18.582;2022-10-16T07:51:39;24.20;;;13.10;;
69434;SDS011;56625;54.322;18.582;2022-10-16T07:54:08;24.80;;;13.40;;
69434;SDS011;56625;54.322;18.582;2022-10-16T07:56:37;27.10;;;15.10;;
69434;SDS011;56625;54.322;18.582;2022-10-16T07:59:10;25.30;;;14.10;;
69434;SDS011;56625;54.322;18.582;2022-10-16T08:01:38;23.90;;;13.00;;
69434;SDS011;56625;54.322;18.582;2022-10-16T08:04:06;23.60;;;13.10;;
69434;SDS011;56625;54.322;18.582;2022-10-16T08:06:37;25.90;;;14.00;;
69434;SDS011;56625;54.322;18.582;2022-10-16T08:09:08;22.30;;;12.60;;
69434;SDS011;56625;54.322;18.582;2022-10-16T08:11:36;24.60;;;13.20;;
69434;SDS011;56625;54.322;18.582;2022-10-16T08:14:04;23.10;;;12.40;;
69434;SDS011;56625;54.322;18.582;2022-10-16T08:16:32;25.50;;;12.70;;
69434;SDS011;56625;54.322;18.582;2022-10-16T08:19:00;20.00;;;10.60;;
69434;SDS011;56625;54.322;18.582;2022-10-16T08:21:27;22.80;;;11.90;;
69434;SDS011;56625;54.322;18.582;2022-10-16T08:23:55;20.50;;;11.00;;
69434;SDS011;56625;54.322;18.582;2022-10-16T08:26:26;18.00;;;8.40;;
69434;SDS011;56625;54.322;18.582;2022-10-16T08:28:57;23.60;;;11.60;;
69434;SDS011;56625;54.322;18.582;2022-10-16T08:31:27;20.90;;;11.20;;
69434;SDS011;56625;54.322;18.582;2022-10-16T08:34:00;21.40;;;11.60;;
69434;SDS011;56625;54.322;18.582;2022-10-16T08:36:27;22.20;;;11.80;;
69434;SDS011;56625;54.322;18.582;2022-10-16T08:38:56;25.30;;;13.70;;
69434;SDS011;56625;54.322;18.582;2022-10-16T08:44:28;25.70;;;12.30;;
69434;SDS011;56625;54.322;18.582;2022-10-16T08:47:18;23.10;;;11.30;;
69434;SDS011;56625;54.322;18.582;2022-10-16T08:49:59;22.00;;;11.20;;
69434;SDS011;56625;54.322;18.582;2022-10-16T08:52:33;19.20;;;9.80;;
69434;SDS011;56625;54.322;18.582;2022-10-16T08:55:03;22.60;;;11.00;;
69434;SDS011;56625;54.322;18.582;2022-10-16T08:57:32;25.00;;;12.00;;
69434;SDS011;56625;54.322;18.582;2022-10-16T09:00:08;24.80;;;11.70;;
69434;SDS011;56625;54.322;18.582;2022-10-16T09:02:48;21.40;;;11.20;;
69434;SDS011;56625;54.322;18.582;2022-10-16T09:05:39;24.10;;;11.60;;
69434;SDS011;56625;54.322;18.582;2022-10-16T09:08:32;23.50;;;11.00;;
69434;SDS011;56625;54.322;18.582;2022-10-16T09:11:16;19.50;;;10.40;;
69434;SDS011;56625;54.322;18.582;2022-10-16T09:25:33;21.90;;;11.40;;
69434;SDS011;56625;54.322;18.582;2022-10-16T09:28:02;19.40;;;10.60;;
69434;SDS011;56625;54.322;18.582;2022-10-16T09:30:30;16.50;;;8.30;;
69434;SDS011;56625;54.322;18.582;2022-10-16T09:32:58;14.60;;;6.40;;
69434;SDS011;56625;54.322;18.582;2022-10-16T09:35:33;20.80;;;11.00;;
69434;SDS011;56625;54.322;18.582;2022-10-16T09:38:02;20.70;;;10.80;;
69434;SDS011;56625;54.322;18.582;2022-10-16T09:40:33;20.90;;;11.20;;
69434;SDS011;56625;54.322;18.582;2022-10-16T09:43:39;22.40;;;10.80;;
69434;SDS011;56625;54.322;18.582;2022-10-16T09:49:00;18.40;;;9.40;;
69434;SDS011;56625;54.322;18.582;2022-10-16T09:51:34;21.00;;;10.30;;
69434;SDS011;56625;54.322;18.582;2022-10-16T09:56:37;18.20;;;10.20;;
69434;SDS011;56625;54.322;18.582;2022-10-16T09:59:18;20.10;;;10.40;;
69434;SDS011;56625;54.322;18.582;2022-10-16T10:01:50;18.10;;;9.70;;
69434;SDS011;56625;54.322;18.582;2022-10-16T10:04:21;17.90;;;8.50;;
69434;SDS011;56625;54.322;18.582;2022-10-16T10:06:55;19.00;;;9.70;;
69434;SDS011;56625;54.322;18.582;2022-10-16T10:09:31;20.20;;;10.80;;
69434;SDS011;56625;54.322;18.582;2022-10-16T10:12:06;17.30;;;8.20;;
69434;SDS011;56625;54.322;18.582;2022-10-16T10:14:55;17.80;;;9.20;;
69434;SDS011;56625;54.322;18.582;2022-10-16T10:17:26;17.80;;;8.90;;
69434;SDS011;56625;54.322;18.582;2022-10-16T10:19:58;16.40;;;8.50;;
69434;SDS011;56625;54.322;18.582;2022-10-16T10:33:47;19.50;;;9.10;;
69434;SDS011;56625;54.322;18.582;2022-10-16T10:36:27;16.90;;;8.10;;
69434;SDS011;56625;54.322;18.582;2022-10-16T10:39:23;20.60;;;9.90;;
69434;SDS011;56625;54.322;18.582;2022-10-16T10:42:25;12.20;;;5.70;;
69434;SDS011;56625;54.322;18.582;2022-10-16T10:45:22;20.10;;;8.80;;
69434;SDS011;56625;54.322;18.582;2022-10-16T10:50:54;17.10;;;8.90;;
69434;SDS011;56625;54.322;18.582;2022-10-16T10:56:39;18.90;;;9.00;;
69434;SDS011;56625;54.322;18.582;2022-10-16T11:02:51;20.40;;;9.80;;
69434;SDS011;56625;54.322;18.582;2022-10-16T11:05:49;12.90;;;5.80;;
69434;SDS011;56625;54.322;18.582;2022-10-16T11:08:26;21.90;;;10.30;;
69434;SDS011;56625;54.322;18.582;2022-10-16T11:11:10;17.50;;;9.50;;
69434;SDS011;56625;54.322;18.582;2022-10-16T11:13:47;20.10;;;9.20;;
69434;SDS011;56625;54.322;18.582;2022-10-16T11:16:32;18.30;;;9.40;;
69434;SDS011;56625;54.322;18.582;2022-10-16T11:19:08;20.00;;;10.40;;
69434;SDS011;56625;54.322;18.582;2022-10-16T11:21:54;20.00;;;10.10;;
69434;SDS011;56625;54.322;18.582;2022-10-16T11:30:31;19.60;;;9.20;;
69434;SDS011;56625;54.322;18.582;2022-10-16T11:34:02;17.10;;;8.90;;
69434;SDS011;56625;54.322;18.582;2022-10-16T11:36:55;17.60;;;9.00;;
69434;SDS011;56625;54.322;18.582;2022-10-16T11:39:29;13.90;;;6.60;;
69434;SDS011;56625;54.322;18.582;2022-10-16T11:42:18;13.70;;;8.00;;
69434;SDS011;56625;54.322;18.582;2022-10-16T11:44:55;15.90;;;7.70;;
69434;SDS011;56625;54.322;18.582;2022-10-16T11:50:44;14.90;;;7.70;;
69434;SDS011;56625;54.322;18.582;2022-10-16T11:53:35;13.00;;;7.20;;
69434;SDS011;56625;54.322;18.582;2022-10-16T11:56:15;12.30;;;7.00;;
69434;SDS011;56625;54.322;18.582;2022-10-16T12:01:35;12.40;;;6.80;;
69434;SDS011;56625;54.322;18.582;2022-10-16T12:07:10;13.90;;;7.80;;
69434;SDS011;56625;54.322;18.582;2022-10-16T12:09:41;13.60;;;7.50;;
69434;SDS011;56625;54.322;18.582;2022-10-16T12:12:45;12.70;;;7.30;;
69434;SDS011;56625;54.322;18.582;2022-10-16T12:15:26;12.10;;;7.10;;
69434;SDS011;56625;54.322;18.582;2022-10-16T12:18:21;14.60;;;7.40;;
69434;SDS011;56625;54.322;18.582;2022-10-16T12:20:55;12.80;;;6.90;;
69434;SDS011;56625;54.322;18.582;2022-10-16T12:23:37;12.90;;;7.70;;
69434;SDS011;56625;54.322;18.582;2022-10-16T12:26:26;12.70;;;7.10;;
69434;SDS011;56625;54.322;18.582;2022-10-16T12:29:14;11.80;;;6.10;;
69434;SDS011;56625;54.322;18.582;2022-10-16T12:35:22;12.30;;;3.90;;
69434;SDS011;56625;54.322;18.582;2022-10-16T12:37:53;11.60;;;6.60;;
69434;SDS011;56625;54.322;18.582;2022-10-16T12:40:33;11.60;;;6.80;;
69434;SDS011;56625;54.322;18.582;2022-10-16T12:43:42;11.00;;;6.60;;
69434;SDS011;56625;54.322;18.582;2022-10-16T12:48:43;10.60;;;6.00;;
69434;SDS011;56625;54.322;18.582;2022-10-16T12:51:37;12.80;;;6.50;;
69434;SDS011;56625;54.322;18.582;2022-10-16T12:54:15;9.40;;;5.40;;
69434;SDS011;56625;54.322;18.582;2022-10-16T12:57:12;9.40;;;4.20;;
69434;SDS011;56625;54.322;18.582;2022-10-16T13:00:27;10.40;;;5.50;;
69434;SDS011;56625;54.322;18.582;2022-10-16T13:06:38;9.50;;;4.70;;
69434;SDS011;56625;54.322;18.582;2022-10-16T13:09:47;9.10;;;4.50;;
69434;SDS011;56625;54.322;18.582;2022-10-16T13:12:47;8.40;;;4.20;;
69434;SDS011;56625;54.322;18.582;2022-10-16T13:18:43;10.90;;;4.90;;
69434;SDS011;56625;54.322;18.582;2022-10-16T13:30:11;9.20;;;4.60;;
69434;SDS011;56625;54.322;18.582;2022-10-16T13:32:45;8.40;;;4.40;;
69434;SDS011;56625;54.322;18.582;2022-10-16T13:35:23;10.10;;;4.90;;
69434;SDS011;56625;54.322;18.582;2022-10-16T13:40:57;9.40;;;4.60;;
69434;SDS011;56625;54.322;18.582;2022-10-16T13:43:43;8.70;;;4.70;;
69434;SDS011;56625;54.322;18.582;2022-10-16T13:46:17;7.60;;;3.80;;
69434;SDS011;56625;54.322;18.582;2022-10-16T13:48:59;9.30;;;4.80;;
69434;SDS011;56625;54.322;18.582;2022-10-16T13:51:30;9.30;;;4.70;;
69434;SDS011;56625;54.322;18.582;2022-10-16T13:53:59;9.70;;;4.30;;
69434;SDS011;56625;54.322;18.582;2022-10-16T13:56:32;9.70;;;5.20;;
69434;SDS011;56625;54.322;18.582;2022-10-16T13:59:05;8.20;;;4.70;;
69434;SDS011;56625;54.322;18.582;2022-10-16T14:01:51;7.60;;;3.90;;
69434;SDS011;56625;54.322;18.582;2022-10-16T14:04:32;8.50;;;4.30;;
69434;SDS011;56625;54.322;18.582;2022-10-16T14:07:00;9.70;;;5.10;;
69434;SDS011;56625;54.322;18.582;2022-10-16T14:09:29;9.50;;;5.50;;
69434;SDS011;56625;54.322;18.582;2022-10-16T14:12:06;8.80;;;4.80;;
69434;SDS011;56625;54.322;18.582;2022-10-16T14:14:43;9.20;;;5.10;;
69434;SDS011;56625;54.322;18.582;2022-10-16T14:17:20;13.20;;;5.20;;
69434;SDS011;56625;54.322;18.582;2022-10-16T14:19:56;8.10;;;4.40;;
69434;SDS011;56625;54.322;18.582;2022-10-16T14:22:40;9.70;;;5.20;;
69434;SDS011;56625;54.322;18.582;2022-10-16T14:25:35;9.20;;;4.80;;
69434;SDS011;56625;54.322;18.582;2022-10-16T14:33:25;10.20;;;4.70;;
69434;SDS011;56625;54.322;18.582;2022-10-16T14:38:38;8.90;;;5.40;;
69434;SDS011;56625;54.322;18.582;2022-10-16T14:41:08;9.20;;;5.50;;
69434;SDS011;56625;54.322;18.582;2022-10-16T14:43:39;9.90;;;5.10;;
69434;SDS011;56625;54.322;18.582;2022-10-16T14:46:14;9.90;;;5.80;;
69434;SDS011;56625;54.322;18.582;2022-10-16T14:49:03;10.40;;;5.80;;
69434;SDS011;56625;54.322;18.582;2022-10-16T14:51:42;10.60;;;5.70;;
69434;SDS011;56625;54.322;18.582;2022-10-16T14:54:14;12.30;;;6.60;;
69434;SDS011;56625;54.322;18.582;2022-10-16T14:56:50;10.80;;;6.00;;
69434;SDS011;56625;54.322;18.582;2022-10-16T14:59:30;11.60;;;6.90;;
69434;SDS011;56625;54.322;18.582;2022-10-16T15:04:48;10.10;;;5.60;;
69434;SDS011;56625;54.322;18.582;2022-10-16T15:07:16;11.40;;;6.00;;
69434;SDS011;56625;54.322;18.582;2022-10-16T15:09:44;12.50;;;6.30;;
69434;SDS011;56625;54.322;18.582;2022-10-16T15:12:16;10.80;;;6.60;;
69434;SDS011;56625;54.322;18.582;2022-10-16T15:14:44;13.00;;;6.80;;
69434;SDS011;56625;54.322;18.582;2022-10-16T15:17:12;10.30;;;6.00;;
69434;SDS011;56625;54.322;18.582;2022-10-16T15:19:47;9.90;;;5.90;;
69434;SDS011;56625;54.322;18.582;2022-10-16T15:22:15;14.10;;;6.60;;
69434;SDS011;56625;54.322;18.582;2022-10-16T15:24:43;10.60;;;6.80;;
69434;SDS011;56625;54.322;18.582;2022-10-16T15:27:11;11.30;;;6.20;;
69434;SDS011;56625;54.322;18.582;2022-10-16T15:29:39;9.50;;;5.60;;
69434;SDS011;56625;54.322;18.582;2022-10-16T15:32:09;9.10;;;5.50;;
69434;SDS011;56625;54.322;18.582;2022-10-16T15:34:37;10.30;;;5.40;;
69434;SDS011;56625;54.322;18.582;2022-10-16T15:37:05;9.30;;;5.00;;
69434;SDS011;56625;54.322;18.582;2022-10-16T15:39:33;9.10;;;5.90;;
69434;SDS011;56625;54.322;18.582;2022-10-16T15:42:08;9.40;;;5.80;;
69434;SDS011;56625;54.322;18.582;2022-10-16T15:44:35;9.30;;;5.10;;
69434;SDS011;56625;54.322;18.582;2022-10-16T15:47:03;11.30;;;5.20;;
69434;SDS011;56625;54.322;18.582;2022-10-16T15:49:31;11.00;;;5.70;;
69434;SDS011;56625;54.322;18.582;2022-10-16T15:51:59;10.40;;;5.60;;
69434;SDS011;56625;54.322;18.582;2022-10-16T15:54:26;11.90;;;6.30;;
69434;SDS011;56625;54.322;18.582;2022-10-16T15:56:54;12.20;;;6.50;;
69434;SDS011;56625;54.322;18.582;2022-10-16T15:59:22;11.00;;;5.80;;
69434;SDS011;56625;54.322;18.582;2022-10-16T16:01:50;10.70;;;6.20;;
69434;SDS011;56625;54.322;18.582;2022-10-16T16:04:18;10.70;;;6.00;;
69434;SDS011;56625;54.322;18.582;2022-10-16T16:07:06;12.20;;;7.20;;
69434;SDS011;56625;54.322;18.582;2022-10-16T16:09:35;16.70;;;7.80;;
69434;SDS011;56625;54.322;18.582;2022-10-16T16:12:03;12.00;;;6.70;;
69434;SDS011;56625;54.322;18.582;2022-10-16T16:14:31;12.30;;;6.70;;
69434;SDS011;56625;54.322;18.582;2022-10-16T16:16:59;13.30;;;7.70;;
69434;SDS011;56625;54.322;18.582;2022-10-16T16:19:27;14.10;;;7.40;;
69434;SDS011;56625;54.322;18.582;2022-10-16T16:21:55;12.90;;;6.40;;
69434;SDS011;56625;54.322;18.582;2022-10-16T16:24:22;11.30;;;6.00;;
69434;SDS011;56625;54.322;18.582;2022-10-16T16:26:50;9.50;;;4.90;;
69434;SDS011;56625;54.322;18.582;2022-10-16T16:29:18;9.80;;;5.80;;
69434;SDS011;56625;54.322;18.582;2022-10-16T16:31:46;8.70;;;5.20;;
69434;SDS011;56625;54.322;18.582;2022-10-16T16:34:14;9.40;;;5.80;;
69434;SDS011;56625;54.322;18.582;2022-10-16T16:36:42;9.90;;;4.90;;
69434;SDS011;56625;54.322;18.582;2022-10-16T16:39:10;13.20;;;6.50;;
69434;SDS011;56625;54.322;18.582;2022-10-16T16:41:38;9.40;;;5.60;;